sensor_id;sensor_type;location;lat;lon;timestamp;P1;durP1;ratioP1;P2;durP2;ratioP2
51828;SDS011;37881;48.024;8.774;2022-08-19T00:01:26;28.40;;;17.80;;
51828;SDS011;37881;48.024;8.774;2022-08-19T00:03:57;27.25;;;17.52;;
51828;SDS011;37881;48.024;8.774;2022-08-19T00:06:26;27.30;;;17.50;;
51828;SDS011;37881;48.024;8.774;2022-08-19T00:08:55;27.30;;;17.63;;
51828;SDS011;37881;48.024;8.774;2022-08-19T00:11:23;29.35;;;17.83;;
51828;SDS011;37881;48.024;8.774;2022-08-19T00:13:52;27.17;;;17.60;;
51828;SDS011;37881;48.024;8.774;2022-08-19T00:16:22;26.23;;;17.33;;
51828;SDS011;37881;48.024;8.774;2022-08-19T00:18:52;27.67;;;17.50;;
51828;SDS011;37881;48.024;8.774;2022-08-19T00:21:21;26.70;;;16.50;;
51828;SDS011;37881;48.024;8.774;2022-08-19T00:23:49;25.30;;;16.27;;
51828;SDS011;37881;48.024;8.774;2022-08-19T00:26:16;25.90;;;16.75;;
51828;SDS011;37881;48.024;8.774;2022-08-19T00:28:43;28.20;;;17.58;;
51828;SDS011;37881;48.024;8.774;2022-08-19T00:31:10;26.38;;;16.60;;
51828;SDS011;37881;48.024;8.774;2022-08-19T00:33:36;26.57;;;17.03;;
51828;SDS011;37881;48.024;8.774;2022-08-19T00:36:05;26.65;;;16.73;;
51828;SDS011;37881;48.024;8.774;2022-08-19T00:38:34;26.77;;;16.70;;
51828;SDS011;37881;48.024;8.774;2022-08-19T00:41:04;25.85;;;16.48;;
51828;SDS011;37881;48.024;8.774;2022-08-19T00:43:32;27.75;;;16.50;;
51828;SDS011;37881;48.024;8.774;2022-08-19T00:45:59;26.43;;;16.10;;
51828;SDS011;37881;48.024;8.774;2022-08-19T00:48:27;26.08;;;16.58;;
51828;SDS011;37881;48.024;8.774;2022-08-19T00:50:54;26.10;;;16.20;;
51828;SDS011;37881;48.024;8.774;2022-08-19T00:53:23;25.35;;;16.63;;
51828;SDS011;37881;48.024;8.774;2022-08-19T00:55:53;27.00;;;16.52;;
51828;SDS011;37881;48.024;8.774;2022-08-19T00:58:24;25.73;;;15.67;;
51828;SDS011;37881;48.024;8.774;2022-08-19T01:00:53;28.02;;;18.13;;
51828;SDS011;37881;48.024;8.774;2022-08-19T01:03:20;29.33;;;18.00;;
51828;SDS011;37881;48.024;8.774;2022-08-19T01:05:48;25.73;;;15.75;;
51828;SDS011;37881;48.024;8.774;2022-08-19T01:08:17;26.30;;;16.45;;
51828;SDS011;37881;48.024;8.774;2022-08-19T01:10:47;26.07;;;16.40;;
51828;SDS011;37881;48.024;8.774;2022-08-19T01:13:21;27.75;;;16.75;;
51828;SDS011;37881;48.024;8.774;2022-08-19T01:15:52;28.65;;;16.80;;
51828;SDS011;37881;48.024;8.774;2022-08-19T01:18:24;26.13;;;16.55;;
51828;SDS011;37881;48.024;8.774;2022-08-19T01:20:54;28.55;;;17.17;;
51828;SDS011;37881;48.024;8.774;2022-08-19T01:23:24;29.53;;;17.23;;
51828;SDS011;37881;48.024;8.774;2022-08-19T01:26:10;30.35;;;17.27;;
51828;SDS011;37881;48.024;8.774;2022-08-19T01:28:45;28.80;;;16.48;;
51828;SDS011;37881;48.024;8.774;2022-08-19T01:31:15;28.80;;;16.40;;
51828;SDS011;37881;48.024;8.774;2022-08-19T01:33:54;30.85;;;17.58;;
51828;SDS011;37881;48.024;8.774;2022-08-19T01:39:22;30.55;;;15.90;;
51828;SDS011;37881;48.024;8.774;2022-08-19T01:41:50;30.77;;;17.38;;
51828;SDS011;37881;48.024;8.774;2022-08-19T01:44:19;33.45;;;18.08;;
51828;SDS011;37881;48.024;8.774;2022-08-19T01:46:50;31.63;;;17.40;;
51828;SDS011;37881;48.024;8.774;2022-08-19T01:49:18;33.23;;;18.43;;
51828;SDS011;37881;48.024;8.774;2022-08-19T01:51:48;32.08;;;17.67;;
51828;SDS011;37881;48.024;8.774;2022-08-19T01:54:16;32.30;;;17.50;;
51828;SDS011;37881;48.024;8.774;2022-08-19T01:56:54;31.92;;;16.83;;
51828;SDS011;37881;48.024;8.774;2022-08-19T01:59:24;31.08;;;16.83;;
51828;SDS011;37881;48.024;8.774;2022-08-19T02:01:50;32.93;;;17.80;;
51828;SDS011;37881;48.024;8.774;2022-08-19T02:04:17;31.73;;;17.10;;
51828;SDS011;37881;48.024;8.774;2022-08-19T02:06:44;33.83;;;18.23;;
51828;SDS011;37881;48.024;8.774;2022-08-19T02:09:11;32.25;;;18.38;;
51828;SDS011;37881;48.024;8.774;2022-08-19T02:11:38;32.80;;;18.27;;
51828;SDS011;37881;48.024;8.774;2022-08-19T02:14:06;32.63;;;18.10;;
51828;SDS011;37881;48.024;8.774;2022-08-19T02:16:35;31.33;;;18.00;;
51828;SDS011;37881;48.024;8.774;2022-08-19T02:19:02;31.70;;;18.10;;
51828;SDS011;37881;48.024;8.774;2022-08-19T02:21:30;34.65;;;18.70;;
51828;SDS011;37881;48.024;8.774;2022-08-19T02:23:58;33.75;;;18.73;;
51828;SDS011;37881;48.024;8.774;2022-08-19T02:26:25;34.17;;;18.57;;
51828;SDS011;37881;48.024;8.774;2022-08-19T02:28:53;36.75;;;19.60;;
51828;SDS011;37881;48.024;8.774;2022-08-19T02:31:22;37.92;;;20.15;;
51828;SDS011;37881;48.024;8.774;2022-08-19T02:33:51;38.65;;;19.95;;
51828;SDS011;37881;48.024;8.774;2022-08-19T02:36:22;37.25;;;19.65;;
51828;SDS011;37881;48.024;8.774;2022-08-19T02:38:50;38.13;;;20.23;;
51828;SDS011;37881;48.024;8.774;2022-08-19T02:41:22;37.45;;;18.92;;
51828;SDS011;37881;48.024;8.774;2022-08-19T02:43:53;36.33;;;19.63;;
51828;SDS011;37881;48.024;8.774;2022-08-19T02:46:47;34.83;;;18.67;;
51828;SDS011;37881;48.024;8.774;2022-08-19T02:49:16;39.45;;;20.00;;
51828;SDS011;37881;48.024;8.774;2022-08-19T02:51:45;38.53;;;19.50;;
51828;SDS011;37881;48.024;8.774;2022-08-19T02:54:13;39.83;;;19.15;;
51828;SDS011;37881;48.024;8.774;2022-08-19T02:56:41;36.95;;;20.00;;
51828;SDS011;37881;48.024;8.774;2022-08-19T02:59:09;35.83;;;19.20;;
51828;SDS011;37881;48.024;8.774;2022-08-19T03:01:37;33.72;;;18.55;;
51828;SDS011;37881;48.024;8.774;2022-08-19T03:04:06;34.60;;;19.03;;
51828;SDS011;37881;48.024;8.774;2022-08-19T03:06:38;35.33;;;19.75;;
51828;SDS011;37881;48.024;8.774;2022-08-19T03:09:07;40.00;;;20.33;;
51828;SDS011;37881;48.024;8.774;2022-08-19T03:11:34;36.17;;;19.45;;
51828;SDS011;37881;48.024;8.774;2022-08-19T03:14:01;36.45;;;19.50;;
51828;SDS011;37881;48.024;8.774;2022-08-19T03:16:30;58.20;;;33.17;;
51828;SDS011;37881;48.024;8.774;2022-08-19T03:18:59;38.85;;;21.15;;
51828;SDS011;37881;48.024;8.774;2022-08-19T03:21:29;38.42;;;20.30;;
51828;SDS011;37881;48.024;8.774;2022-08-19T03:23:58;34.33;;;18.40;;
51828;SDS011;37881;48.024;8.774;2022-08-19T03:26:30;34.53;;;19.15;;
51828;SDS011;37881;48.024;8.774;2022-08-19T03:28:56;34.80;;;19.03;;
51828;SDS011;37881;48.024;8.774;2022-08-19T03:31:30;37.80;;;19.58;;
51828;SDS011;37881;48.024;8.774;2022-08-19T03:34:17;36.97;;;19.73;;
51828;SDS011;37881;48.024;8.774;2022-08-19T03:36:47;36.88;;;20.33;;
51828;SDS011;37881;48.024;8.774;2022-08-19T03:39:14;37.70;;;20.30;;
51828;SDS011;37881;48.024;8.774;2022-08-19T03:41:42;36.03;;;20.10;;
51828;SDS011;37881;48.024;8.774;2022-08-19T03:44:14;34.47;;;19.45;;
51828;SDS011;37881;48.024;8.774;2022-08-19T03:46:48;33.70;;;19.33;;
51828;SDS011;37881;48.024;8.774;2022-08-19T03:49:17;34.35;;;20.05;;
51828;SDS011;37881;48.024;8.774;2022-08-19T03:51:45;36.97;;;19.77;;
51828;SDS011;37881;48.024;8.774;2022-08-19T03:54:13;35.33;;;19.43;;
51828;SDS011;37881;48.024;8.774;2022-08-19T03:56:43;35.03;;;19.00;;
51828;SDS011;37881;48.024;8.774;2022-08-19T03:59:12;36.58;;;19.20;;
51828;SDS011;37881;48.024;8.774;2022-08-19T04:01:42;38.20;;;20.23;;
51828;SDS011;37881;48.024;8.774;2022-08-19T04:04:10;36.45;;;19.35;;
51828;SDS011;37881;48.024;8.774;2022-08-19T04:06:37;34.93;;;19.93;;
51828;SDS011;37881;48.024;8.774;2022-08-19T04:09:07;35.00;;;19.90;;
51828;SDS011;37881;48.024;8.774;2022-08-19T04:11:45;36.45;;;19.75;;
51828;SDS011;37881;48.024;8.774;2022-08-19T04:14:16;36.13;;;20.13;;
51828;SDS011;37881;48.024;8.774;2022-08-19T04:16:46;36.20;;;20.38;;
51828;SDS011;37881;48.024;8.774;2022-08-19T04:19:14;36.00;;;20.63;;
51828;SDS011;37881;48.024;8.774;2022-08-19T04:21:43;32.17;;;18.35;;
51828;SDS011;37881;48.024;8.774;2022-08-19T04:24:12;34.83;;;18.92;;
51828;SDS011;37881;48.024;8.774;2022-08-19T04:26:40;35.20;;;19.35;;
51828;SDS011;37881;48.024;8.774;2022-08-19T04:29:09;35.75;;;19.73;;
51828;SDS011;37881;48.024;8.774;2022-08-19T04:31:38;37.87;;;20.67;;
51828;SDS011;37881;48.024;8.774;2022-08-19T04:34:07;35.03;;;19.40;;
51828;SDS011;37881;48.024;8.774;2022-08-19T04:36:40;33.92;;;18.38;;
51828;SDS011;37881;48.024;8.774;2022-08-19T04:39:11;35.08;;;19.10;;
51828;SDS011;37881;48.024;8.774;2022-08-19T04:41:41;33.17;;;18.83;;
51828;SDS011;37881;48.024;8.774;2022-08-19T04:44:27;30.73;;;17.93;;
51828;SDS011;37881;48.024;8.774;2022-08-19T04:46:58;30.45;;;17.75;;
51828;SDS011;37881;48.024;8.774;2022-08-19T04:49:26;31.77;;;18.35;;
51828;SDS011;37881;48.024;8.774;2022-08-19T04:51:54;31.33;;;18.25;;
51828;SDS011;37881;48.024;8.774;2022-08-19T04:54:22;30.08;;;17.60;;
51828;SDS011;37881;48.024;8.774;2022-08-19T04:57:04;30.43;;;18.23;;
51828;SDS011;37881;48.024;8.774;2022-08-19T04:59:33;30.73;;;18.13;;
51828;SDS011;37881;48.024;8.774;2022-08-19T05:02:00;29.17;;;17.52;;
51828;SDS011;37881;48.024;8.774;2022-08-19T05:04:28;31.05;;;17.95;;
51828;SDS011;37881;48.024;8.774;2022-08-19T05:06:58;31.85;;;19.17;;
51828;SDS011;37881;48.024;8.774;2022-08-19T05:09:28;30.53;;;18.67;;
51828;SDS011;37881;48.024;8.774;2022-08-19T05:12:15;31.60;;;18.65;;
51828;SDS011;37881;48.024;8.774;2022-08-19T05:14:42;28.55;;;17.70;;
51828;SDS011;37881;48.024;8.774;2022-08-19T05:17:11;30.42;;;17.83;;
51828;SDS011;37881;48.024;8.774;2022-08-19T05:19:53;30.08;;;18.20;;
51828;SDS011;37881;48.024;8.774;2022-08-19T05:22:39;32.27;;;18.17;;
51828;SDS011;37881;48.024;8.774;2022-08-19T05:25:08;33.80;;;18.48;;
51828;SDS011;37881;48.024;8.774;2022-08-19T05:27:40;30.48;;;18.05;;
51828;SDS011;37881;48.024;8.774;2022-08-19T05:30:08;31.50;;;18.38;;
51828;SDS011;37881;48.024;8.774;2022-08-19T05:32:36;30.75;;;18.05;;
51828;SDS011;37881;48.024;8.774;2022-08-19T05:35:03;29.43;;;17.60;;
51828;SDS011;37881;48.024;8.774;2022-08-19T05:37:31;31.23;;;17.83;;
51828;SDS011;37881;48.024;8.774;2022-08-19T05:39:58;30.88;;;18.83;;
51828;SDS011;37881;48.024;8.774;2022-08-19T05:42:24;31.60;;;18.65;;
51828;SDS011;37881;48.024;8.774;2022-08-19T05:44:52;31.02;;;18.17;;
51828;SDS011;37881;48.024;8.774;2022-08-19T05:47:19;29.03;;;18.10;;
51828;SDS011;37881;48.024;8.774;2022-08-19T05:49:46;32.28;;;19.15;;
51828;SDS011;37881;48.024;8.774;2022-08-19T05:52:14;32.97;;;18.98;;
51828;SDS011;37881;48.024;8.774;2022-08-19T05:54:44;31.77;;;18.42;;
51828;SDS011;37881;48.024;8.774;2022-08-19T05:57:17;30.15;;;18.27;;
51828;SDS011;37881;48.024;8.774;2022-08-19T05:59:45;31.30;;;18.87;;
51828;SDS011;37881;48.024;8.774;2022-08-19T06:02:18;31.60;;;18.65;;
51828;SDS011;37881;48.024;8.774;2022-08-19T06:04:45;30.30;;;18.15;;
51828;SDS011;37881;48.024;8.774;2022-08-19T06:07:11;30.33;;;18.42;;
51828;SDS011;37881;48.024;8.774;2022-08-19T06:09:38;29.27;;;17.58;;
51828;SDS011;37881;48.024;8.774;2022-08-19T06:12:09;32.93;;;18.03;;
51828;SDS011;37881;48.024;8.774;2022-08-19T06:14:35;30.58;;;17.75;;
51828;SDS011;37881;48.024;8.774;2022-08-19T06:17:07;28.30;;;17.30;;
51828;SDS011;37881;48.024;8.774;2022-08-19T06:19:34;31.48;;;17.48;;
51828;SDS011;37881;48.024;8.774;2022-08-19T06:22:06;30.80;;;18.45;;
51828;SDS011;37881;48.024;8.774;2022-08-19T06:24:34;29.73;;;16.97;;
51828;SDS011;37881;48.024;8.774;2022-08-19T06:27:02;29.77;;;17.23;;
51828;SDS011;37881;48.024;8.774;2022-08-19T06:29:31;29.13;;;17.65;;
51828;SDS011;37881;48.024;8.774;2022-08-19T06:31:59;33.45;;;18.73;;
51828;SDS011;37881;48.024;8.774;2022-08-19T06:34:29;34.20;;;18.17;;
51828;SDS011;37881;48.024;8.774;2022-08-19T06:36:58;35.77;;;17.93;;
51828;SDS011;37881;48.024;8.774;2022-08-19T06:39:28;33.85;;;18.00;;
51828;SDS011;37881;48.024;8.774;2022-08-19T06:41:59;32.83;;;18.83;;
51828;SDS011;37881;48.024;8.774;2022-08-19T06:44:28;26.98;;;16.58;;
51828;SDS011;37881;48.024;8.774;2022-08-19T06:47:06;29.52;;;17.05;;
51828;SDS011;37881;48.024;8.774;2022-08-19T06:49:41;31.50;;;17.93;;
51828;SDS011;37881;48.024;8.774;2022-08-19T06:52:10;29.42;;;17.35;;
51828;SDS011;37881;48.024;8.774;2022-08-19T06:54:40;32.30;;;18.70;;
51828;SDS011;37881;48.024;8.774;2022-08-19T06:57:22;34.20;;;18.38;;
51828;SDS011;37881;48.024;8.774;2022-08-19T06:59:50;33.08;;;19.10;;
51828;SDS011;37881;48.024;8.774;2022-08-19T07:02:17;30.57;;;17.80;;
51828;SDS011;37881;48.024;8.774;2022-08-19T07:04:45;33.47;;;18.35;;
51828;SDS011;37881;48.024;8.774;2022-08-19T07:07:13;31.33;;;18.38;;
51828;SDS011;37881;48.024;8.774;2022-08-19T07:09:47;32.80;;;18.20;;
51828;SDS011;37881;48.024;8.774;2022-08-19T07:12:23;34.78;;;19.58;;
51828;SDS011;37881;48.024;8.774;2022-08-19T07:14:51;33.30;;;18.80;;
51828;SDS011;37881;48.024;8.774;2022-08-19T07:17:19;29.63;;;17.70;;
51828;SDS011;37881;48.024;8.774;2022-08-19T07:19:47;33.05;;;18.10;;
51828;SDS011;37881;48.024;8.774;2022-08-19T07:22:14;34.65;;;17.92;;
51828;SDS011;37881;48.024;8.774;2022-08-19T07:24:42;32.85;;;18.52;;
51828;SDS011;37881;48.024;8.774;2022-08-19T07:27:16;34.67;;;19.23;;
51828;SDS011;37881;48.024;8.774;2022-08-19T07:29:50;33.35;;;17.73;;
51828;SDS011;37881;48.024;8.774;2022-08-19T07:32:26;32.38;;;17.85;;
51828;SDS011;37881;48.024;8.774;2022-08-19T07:34:53;36.47;;;20.02;;
51828;SDS011;37881;48.024;8.774;2022-08-19T07:37:22;38.90;;;19.77;;
51828;SDS011;37881;48.024;8.774;2022-08-19T07:39:56;34.67;;;18.73;;
51828;SDS011;37881;48.024;8.774;2022-08-19T07:42:22;34.45;;;18.13;;
51828;SDS011;37881;48.024;8.774;2022-08-19T07:44:49;35.42;;;18.05;;
51828;SDS011;37881;48.024;8.774;2022-08-19T07:47:16;38.28;;;19.77;;
51828;SDS011;37881;48.024;8.774;2022-08-19T07:50:05;35.30;;;18.58;;
51828;SDS011;37881;48.024;8.774;2022-08-19T07:52:37;37.53;;;19.77;;
51828;SDS011;37881;48.024;8.774;2022-08-19T07:55:06;33.78;;;18.38;;
51828;SDS011;37881;48.024;8.774;2022-08-19T07:57:55;36.38;;;19.17;;
51828;SDS011;37881;48.024;8.774;2022-08-19T08:00:22;37.10;;;19.98;;
51828;SDS011;37881;48.024;8.774;2022-08-19T08:02:50;38.30;;;19.88;;
51828;SDS011;37881;48.024;8.774;2022-08-19T08:05:22;36.27;;;18.20;;
51828;SDS011;37881;48.024;8.774;2022-08-19T08:08:10;33.30;;;18.50;;
51828;SDS011;37881;48.024;8.774;2022-08-19T08:10:57;37.00;;;20.40;;
51828;SDS011;37881;48.024;8.774;2022-08-19T08:13:25;35.78;;;19.75;;
51828;SDS011;37881;48.024;8.774;2022-08-19T08:15:53;39.22;;;20.45;;
51828;SDS011;37881;48.024;8.774;2022-08-19T08:18:22;32.80;;;18.07;;
51828;SDS011;37881;48.024;8.774;2022-08-19T08:20:54;36.00;;;19.60;;
51828;SDS011;37881;48.024;8.774;2022-08-19T08:23:22;35.15;;;19.60;;
51828;SDS011;37881;48.024;8.774;2022-08-19T08:25:51;32.90;;;19.00;;
51828;SDS011;37881;48.024;8.774;2022-08-19T08:28:21;34.25;;;18.95;;
51828;SDS011;37881;48.024;8.774;2022-08-19T08:30:48;37.27;;;19.87;;
51828;SDS011;37881;48.024;8.774;2022-08-19T08:33:20;34.80;;;19.50;;
51828;SDS011;37881;48.024;8.774;2022-08-19T08:35:58;35.60;;;19.08;;
51828;SDS011;37881;48.024;8.774;2022-08-19T08:38:25;34.85;;;19.25;;
51828;SDS011;37881;48.024;8.774;2022-08-19T08:40:55;35.67;;;19.55;;
51828;SDS011;37881;48.024;8.774;2022-08-19T08:43:34;35.40;;;19.90;;
51828;SDS011;37881;48.024;8.774;2022-08-19T08:48:39;36.88;;;19.63;;
51828;SDS011;37881;48.024;8.774;2022-08-19T08:51:20;33.80;;;19.38;;
51828;SDS011;37881;48.024;8.774;2022-08-19T08:54:00;36.35;;;20.10;;
51828;SDS011;37881;48.024;8.774;2022-08-19T08:56:30;32.50;;;18.27;;
51828;SDS011;37881;48.024;8.774;2022-08-19T08:59:02;32.53;;;18.88;;
51828;SDS011;37881;48.024;8.774;2022-08-19T09:01:36;33.55;;;19.67;;
51828;SDS011;37881;48.024;8.774;2022-08-19T09:04:04;35.95;;;19.20;;
51828;SDS011;37881;48.024;8.774;2022-08-19T09:09:52;34.17;;;19.30;;
51828;SDS011;37881;48.024;8.774;2022-08-19T09:12:47;35.25;;;19.10;;
51828;SDS011;37881;48.024;8.774;2022-08-19T09:15:18;32.17;;;19.35;;
51828;SDS011;37881;48.024;8.774;2022-08-19T09:18:02;32.92;;;19.38;;
51828;SDS011;37881;48.024;8.774;2022-08-19T09:20:32;34.88;;;19.20;;
51828;SDS011;37881;48.024;8.774;2022-08-19T09:22:59;34.73;;;19.63;;
51828;SDS011;37881;48.024;8.774;2022-08-19T09:25:26;38.90;;;20.35;;
51828;SDS011;37881;48.024;8.774;2022-08-19T09:27:55;36.47;;;20.60;;
51828;SDS011;37881;48.024;8.774;2022-08-19T09:30:32;35.45;;;19.95;;
51828;SDS011;37881;48.024;8.774;2022-08-19T09:33:04;37.17;;;21.20;;
51828;SDS011;37881;48.024;8.774;2022-08-19T09:35:31;34.40;;;19.87;;
51828;SDS011;37881;48.024;8.774;2022-08-19T09:38:19;33.38;;;19.50;;
51828;SDS011;37881;48.024;8.774;2022-08-19T09:40:47;35.83;;;19.98;;
51828;SDS011;37881;48.024;8.774;2022-08-19T09:43:16;35.95;;;20.30;;
51828;SDS011;37881;48.024;8.774;2022-08-19T09:45:59;37.58;;;20.88;;
51828;SDS011;37881;48.024;8.774;2022-08-19T09:48:27;36.37;;;20.50;;
51828;SDS011;37881;48.024;8.774;2022-08-19T09:50:54;34.28;;;19.80;;
51828;SDS011;37881;48.024;8.774;2022-08-19T09:53:20;39.58;;;21.65;;
51828;SDS011;37881;48.024;8.774;2022-08-19T09:55:51;37.75;;;19.65;;
51828;SDS011;37881;48.024;8.774;2022-08-19T09:58:18;34.60;;;20.02;;
51828;SDS011;37881;48.024;8.774;2022-08-19T10:00:51;34.37;;;19.67;;
51828;SDS011;37881;48.024;8.774;2022-08-19T10:03:18;36.90;;;20.52;;
51828;SDS011;37881;48.024;8.774;2022-08-19T10:05:45;37.95;;;21.15;;
51828;SDS011;37881;48.024;8.774;2022-08-19T10:08:22;35.00;;;20.75;;
51828;SDS011;37881;48.024;8.774;2022-08-19T10:10:52;34.58;;;20.83;;
51828;SDS011;37881;48.024;8.774;2022-08-19T10:13:22;36.27;;;19.97;;
51828;SDS011;37881;48.024;8.774;2022-08-19T10:15:53;36.47;;;20.80;;
51828;SDS011;37881;48.024;8.774;2022-08-19T10:18:22;34.75;;;19.67;;
51828;SDS011;37881;48.024;8.774;2022-08-19T10:20:51;35.53;;;21.02;;
51828;SDS011;37881;48.024;8.774;2022-08-19T10:23:20;35.75;;;20.48;;
51828;SDS011;37881;48.024;8.774;2022-08-19T10:25:47;34.90;;;19.87;;
51828;SDS011;37881;48.024;8.774;2022-08-19T10:28:15;39.38;;;20.90;;
51828;SDS011;37881;48.024;8.774;2022-08-19T10:30:45;35.60;;;20.02;;
51828;SDS011;37881;48.024;8.774;2022-08-19T10:33:11;36.03;;;20.20;;
51828;SDS011;37881;48.024;8.774;2022-08-19T10:35:40;32.20;;;19.25;;
51828;SDS011;37881;48.024;8.774;2022-08-19T10:38:22;36.93;;;21.00;;
51828;SDS011;37881;48.024;8.774;2022-08-19T10:40:57;36.13;;;20.50;;
51828;SDS011;37881;48.024;8.774;2022-08-19T10:43:24;35.53;;;20.02;;
51828;SDS011;37881;48.024;8.774;2022-08-19T10:45:52;34.33;;;19.25;;
51828;SDS011;37881;48.024;8.774;2022-08-19T10:48:22;35.38;;;20.08;;
51828;SDS011;37881;48.024;8.774;2022-08-19T10:50:48;32.47;;;19.00;;
51828;SDS011;37881;48.024;8.774;2022-08-19T10:53:34;31.23;;;19.05;;
51828;SDS011;37881;48.024;8.774;2022-08-19T10:56:01;35.63;;;19.83;;
51828;SDS011;37881;48.024;8.774;2022-08-19T10:58:47;33.45;;;19.25;;
51828;SDS011;37881;48.024;8.774;2022-08-19T11:01:14;31.42;;;18.77;;
51828;SDS011;37881;48.024;8.774;2022-08-19T11:03:41;31.97;;;18.63;;
51828;SDS011;37881;48.024;8.774;2022-08-19T11:06:08;31.27;;;18.13;;
51828;SDS011;37881;48.024;8.774;2022-08-19T11:08:36;33.67;;;18.35;;
51828;SDS011;37881;48.024;8.774;2022-08-19T11:11:04;31.02;;;18.13;;
51828;SDS011;37881;48.024;8.774;2022-08-19T11:13:33;30.25;;;17.65;;
51828;SDS011;37881;48.024;8.774;2022-08-19T11:16:08;29.60;;;18.50;;
51828;SDS011;37881;48.024;8.774;2022-08-19T11:18:38;30.60;;;18.40;;
51828;SDS011;37881;48.024;8.774;2022-08-19T11:21:08;29.15;;;17.77;;
51828;SDS011;37881;48.024;8.774;2022-08-19T11:23:36;30.73;;;17.55;;
51828;SDS011;37881;48.024;8.774;2022-08-19T11:26:03;30.83;;;19.15;;
51828;SDS011;37881;48.024;8.774;2022-08-19T11:28:30;29.00;;;17.93;;
51828;SDS011;37881;48.024;8.774;2022-08-19T11:30:56;31.23;;;18.30;;
51828;SDS011;37881;48.024;8.774;2022-08-19T11:33:23;32.80;;;19.67;;
51828;SDS011;37881;48.024;8.774;2022-08-19T11:35:52;30.52;;;19.13;;
51828;SDS011;37881;48.024;8.774;2022-08-19T11:38:20;30.17;;;18.50;;
51828;SDS011;37881;48.024;8.774;2022-08-19T11:40:53;30.60;;;18.10;;
51828;SDS011;37881;48.024;8.774;2022-08-19T11:43:24;33.78;;;19.60;;
51828;SDS011;37881;48.024;8.774;2022-08-19T11:45:53;31.00;;;19.65;;
51828;SDS011;37881;48.024;8.774;2022-08-19T11:48:21;31.02;;;18.58;;
51828;SDS011;37881;48.024;8.774;2022-08-19T11:50:49;31.67;;;19.38;;
51828;SDS011;37881;48.024;8.774;2022-08-19T11:53:16;31.10;;;19.50;;
51828;SDS011;37881;48.024;8.774;2022-08-19T11:55:46;32.13;;;19.63;;
51828;SDS011;37881;48.024;8.774;2022-08-19T11:58:14;32.88;;;20.80;;
51828;SDS011;37881;48.024;8.774;2022-08-19T12:00:44;33.95;;;20.88;;
51828;SDS011;37881;48.024;8.774;2022-08-19T12:03:12;30.15;;;19.65;;
51828;SDS011;37881;48.024;8.774;2022-08-19T12:05:39;32.83;;;20.80;;
51828;SDS011;37881;48.024;8.774;2022-08-19T12:08:07;32.33;;;20.85;;
51828;SDS011;37881;48.024;8.774;2022-08-19T12:10:35;32.00;;;19.80;;
51828;SDS011;37881;48.024;8.774;2022-08-19T12:13:02;30.42;;;19.27;;
51828;SDS011;37881;48.024;8.774;2022-08-19T12:15:29;32.58;;;19.95;;
51828;SDS011;37881;48.024;8.774;2022-08-19T12:18:03;33.57;;;20.00;;
51828;SDS011;37881;48.024;8.774;2022-08-19T12:20:31;33.45;;;20.42;;
51828;SDS011;37881;48.024;8.774;2022-08-19T12:23:02;30.45;;;19.05;;
51828;SDS011;37881;48.024;8.774;2022-08-19T12:25:29;31.83;;;19.77;;
51828;SDS011;37881;48.024;8.774;2022-08-19T12:27:57;31.17;;;20.02;;
51828;SDS011;37881;48.024;8.774;2022-08-19T12:30:24;35.87;;;22.93;;
51828;SDS011;37881;48.024;8.774;2022-08-19T12:32:51;39.40;;;23.05;;
51828;SDS011;37881;48.024;8.774;2022-08-19T12:35:18;42.50;;;24.75;;
51828;SDS011;37881;48.024;8.774;2022-08-19T12:37:47;35.10;;;21.88;;
51828;SDS011;37881;48.024;8.774;2022-08-19T12:40:23;38.22;;;24.08;;
51828;SDS011;37881;48.024;8.774;2022-08-19T12:42:52;39.00;;;24.13;;
51828;SDS011;37881;48.024;8.774;2022-08-19T12:45:19;33.67;;;21.38;;
51828;SDS011;37881;48.024;8.774;2022-08-19T12:47:46;36.00;;;22.67;;
51828;SDS011;37881;48.024;8.774;2022-08-19T12:50:15;37.00;;;24.00;;
51828;SDS011;37881;48.024;8.774;2022-08-19T12:52:41;36.92;;;23.17;;
51828;SDS011;37881;48.024;8.774;2022-08-19T12:55:09;43.77;;;25.67;;
51828;SDS011;37881;48.024;8.774;2022-08-19T12:57:37;41.08;;;24.58;;
51828;SDS011;37881;48.024;8.774;2022-08-19T13:02:42;39.97;;;25.35;;
51828;SDS011;37881;48.024;8.774;2022-08-19T13:05:13;39.15;;;24.48;;
51828;SDS011;37881;48.024;8.774;2022-08-19T13:07:42;39.87;;;23.63;;
51828;SDS011;37881;48.024;8.774;2022-08-19T13:10:13;41.47;;;25.08;;
51828;SDS011;37881;48.024;8.774;2022-08-19T13:12:42;43.00;;;26.20;;
51828;SDS011;37881;48.024;8.774;2022-08-19T13:15:10;44.65;;;26.02;;
51828;SDS011;37881;48.024;8.774;2022-08-19T13:17:40;43.33;;;25.83;;
51828;SDS011;37881;48.024;8.774;2022-08-19T13:20:08;39.70;;;24.53;;
51828;SDS011;37881;48.024;8.774;2022-08-19T13:22:36;41.03;;;25.05;;
51828;SDS011;37881;48.024;8.774;2022-08-19T13:25:04;41.85;;;25.70;;
51828;SDS011;37881;48.024;8.774;2022-08-19T13:27:32;43.83;;;26.67;;
51828;SDS011;37881;48.024;8.774;2022-08-19T13:29:59;40.25;;;25.58;;
51828;SDS011;37881;48.024;8.774;2022-08-19T13:32:46;44.63;;;25.97;;
51828;SDS011;37881;48.024;8.774;2022-08-19T13:35:31;43.22;;;27.00;;
51828;SDS011;37881;48.024;8.774;2022-08-19T13:37:58;45.70;;;27.95;;
51828;SDS011;37881;48.024;8.774;2022-08-19T13:40:25;43.45;;;25.70;;
51828;SDS011;37881;48.024;8.774;2022-08-19T13:42:53;38.38;;;24.42;;
51828;SDS011;37881;48.024;8.774;2022-08-19T13:45:22;43.47;;;27.30;;
51828;SDS011;37881;48.024;8.774;2022-08-19T13:47:52;41.58;;;26.48;;
51828;SDS011;37881;48.024;8.774;2022-08-19T13:50:29;41.67;;;27.55;;
51828;SDS011;37881;48.024;8.774;2022-08-19T13:53:00;39.50;;;25.40;;
51828;SDS011;37881;48.024;8.774;2022-08-19T13:55:27;42.17;;;26.85;;
51828;SDS011;37881;48.024;8.774;2022-08-19T13:57:57;38.43;;;25.27;;
51828;SDS011;37881;48.024;8.774;2022-08-19T14:00:28;41.30;;;25.45;;
51828;SDS011;37881;48.024;8.774;2022-08-19T14:02:57;38.55;;;25.95;;
51828;SDS011;37881;48.024;8.774;2022-08-19T14:05:25;34.08;;;23.17;;
51828;SDS011;37881;48.024;8.774;2022-08-19T14:07:53;35.47;;;22.95;;
51828;SDS011;37881;48.024;8.774;2022-08-19T14:10:20;44.43;;;26.27;;
51828;SDS011;37881;48.024;8.774;2022-08-19T14:12:51;36.15;;;24.20;;
51828;SDS011;37881;48.024;8.774;2022-08-19T14:15:19;40.55;;;25.77;;
51828;SDS011;37881;48.024;8.774;2022-08-19T14:17:46;39.10;;;24.65;;
51828;SDS011;37881;48.024;8.774;2022-08-19T14:20:15;38.47;;;25.33;;
51828;SDS011;37881;48.024;8.774;2022-08-19T14:22:44;35.13;;;23.40;;
51828;SDS011;37881;48.024;8.774;2022-08-19T14:25:23;38.33;;;25.13;;
51828;SDS011;37881;48.024;8.774;2022-08-19T14:27:53;36.42;;;24.95;;
51828;SDS011;37881;48.024;8.774;2022-08-19T14:30:22;41.63;;;26.05;;
51828;SDS011;37881;48.024;8.774;2022-08-19T14:32:53;37.65;;;24.73;;
51828;SDS011;37881;48.024;8.774;2022-08-19T14:35:21;38.60;;;25.00;;
51828;SDS011;37881;48.024;8.774;2022-08-19T14:37:48;37.78;;;24.83;;
51828;SDS011;37881;48.024;8.774;2022-08-19T14:40:18;37.35;;;24.80;;
51828;SDS011;37881;48.024;8.774;2022-08-19T14:42:58;37.50;;;24.83;;
51828;SDS011;37881;48.024;8.774;2022-08-19T14:45:36;39.60;;;25.40;;
51828;SDS011;37881;48.024;8.774;2022-08-19T14:48:06;38.17;;;25.53;;
51828;SDS011;37881;48.024;8.774;2022-08-19T14:50:44;38.42;;;25.27;;